Time;durP1;ratioP1;P1;durP2;ratioP2;P2;SDS_P1;SDS_P2;PMS_P1;PMS_P2;Temp;Humidity;BMP_temperature;BMP_pressure;BME280_temperature;BME280_humidity;BME280_pressure;Samples;Min_cycle;Max_cycle;Signal;HPM_P1;HPM_P2
2023/04/01 00:01:54;;;;;;;7.65;3.55;;;;;;;12.70;62.29;97360.19;5055075;28;20579;-60
2023/04/01 00:04:20;;;;;;;6.05;4.35;;;;;;;12.66;62.73;97369.22;5055088;28;20582;-61
2023/04/01 00:06:47;;;;;;;7.75;4.18;;;;;;;12.36;63.19;97347.91;5055020;28;20657;-60
2023/04/01 00:09:12;;;;;;;6.88;4.03;;;;;;;12.61;63.26;97386.97;5055017;28;20296;-60
2023/04/01 00:11:38;;;;;;;5.93;3.88;;;;;;;12.32;63.19;97347.34;5054657;28;20272;-60
2023/04/01 00:14:04;;;;;;;7.30;4.45;;;;;;;11.98;63.39;97306.53;5054911;28;20189;-60
2023/04/01 00:16:30;;;;;;;4.53;3.70;;;;;;;12.05;64.07;97341.28;5054873;28;20182;-60
2023/04/01 00:18:55;;;;;;;6.07;4.05;;;;;;;11.78;64.57;97323.88;5054855;28;20185;-60
2023/04/01 00:21:22;;;;;;;4.13;3.72;;;;;;;12.00;64.80;97369.41;5054684;28;20178;-60
2023/04/01 00:23:48;;;;;;;4.55;3.97;;;;;;;11.98;64.56;97354.00;5054761;28;20188;-60
2023/04/01 00:26:17;;;;;;;6.18;3.45;;;;;;;12.03;65.02;97371.72;5054696;28;20178;-60
2023/04/01 00:28:43;;;;;;;6.07;3.75;;;;;;;11.62;64.84;97304.69;5054676;28;20224;-60
2023/04/01 00:31:10;;;;;;;4.72;4.20;;;;;;;11.97;65.38;97354.13;5054610;28;20630;-60
2023/04/01 00:33:35;;;;;;;5.10;3.70;;;;;;;11.78;65.66;97354.19;5054289;28;20718;-60
2023/04/01 00:36:09;;;;;;;8.75;4.38;;;;;;;11.64;65.65;97316.53;5054498;28;20174;-61
2023/04/01 00:38:36;;;;;;;5.18;3.50;;;;;;;11.94;65.79;97373.38;5054472;28;20178;-60
2023/04/01 00:41:01;;;;;;;3.95;3.45;;;;;;;11.76;66.09;97348.28;5054157;28;20561;-60
2023/04/01 00:43:26;;;;;;;5.68;4.05;;;;;;;11.90;66.18;97382.38;5054331;28;20202;-60
2023/04/01 00:45:52;;;;;;;4.85;3.83;;;;;;;11.69;67.43;97391.25;5054040;28;20178;-60
2023/04/01 00:48:22;;;;;;;7.28;3.28;;;;;;;11.41;68.13;97366.13;5054312;28;20632;-60
2023/04/01 00:51:02;;;;;;;3.92;3.28;;;;;;;11.39;68.15;97362.88;5053986;28;20671;-60
2023/04/01 00:53:30;;;;;;;5.60;3.38;;;;;;;11.25;69.37;97360.66;5054268;28;20165;-60
2023/04/01 00:56:01;;;;;;;5.25;3.30;;;;;;;11.27;68.84;97343.22;5053925;28;20202;-60
2023/04/01 00:58:30;;;;;;;6.15;3.15;;;;;;;11.65;68.60;97387.28;5054114;28;20170;-60
2023/04/01 01:00:57;;;;;;;4.80;4.03;;;;;;;11.66;67.82;97365.59;5054101;28;20227;-60
2023/04/01 01:03:23;;;;;;;14.45;4.95;;;;;;;11.37;66.64;97300.03;5053966;28;20289;-60
2023/04/01 01:06:03;;;;;;;6.40;2.95;;;;;;;11.96;66.46;97383.63;5054266;28;20257;-60
2023/04/01 01:08:40;;;;;;;4.50;3.08;;;;;;;11.92;66.80;97377.91;5054068;28;20180;-60
2023/04/01 01:11:12;;;;;;;3.58;2.80;;;;;;;11.65;66.85;97323.34;5053996;28;20166;-60
2023/04/01 01:13:49;;;;;;;5.60;3.28;;;;;;;11.45;67.55;97316.50;5053905;28;20201;-60
2023/04/01 01:16:29;;;;;;;4.43;3.17;;;;;;;11.78;67.18;97341.22;5053902;28;20316;-60
2023/04/01 01:19:26;;;;;;;5.00;2.97;;;;;;;11.92;67.51;97371.88;5053857;28;20173;-60
2023/04/01 01:22:10;;;;;;;4.15;3.00;;;;;;;11.99;67.99;97363.41;5053541;28;20255;-60
2023/04/01 01:24:35;;;;;;;5.10;3.22;;;;;;;12.06;67.94;97374.84;5053695;28;20162;-60
2023/04/01 01:27:20;;;;;;;4.80;3.50;;;;;;;11.94;68.72;97375.13;5053589;28;20542;-60
2023/04/01 01:30:25;;;;;;;9.25;3.50;;;;;;;11.74;68.07;97322.50;5031448;28;20611;-60
2023/04/01 01:33:02;;;;;;;6.00;3.15;;;;;;;12.06;68.14;97374.03;5030867;28;20198;-60
2023/04/01 01:35:42;;;;;;;4.90;3.53;;;;;;;11.60;68.03;97315.19;5031182;28;20247;-60
2023/04/01 01:38:12;;;;;;;4.80;3.72;;;;;;;11.92;68.58;97377.91;5031085;28;20170;-60
2023/04/01 01:40:42;;;;;;;3.38;3.05;;;;;;;11.91;69.02;97376.22;5031076;28;20170;-60
2023/04/01 01:43:11;;;;;;;7.38;3.30;;;;;;;12.00;68.63;97380.59;5030843;28;20261;-60
2023/04/01 01:45:42;;;;;;;5.25;3.95;;;;;;;11.95;68.69;97366.41;5030888;28;20221;-60
2023/04/01 01:48:09;;;;;;;5.97;4.03;;;;;;;11.51;69.83;97321.16;5030965;28;20642;-60
2023/04/01 01:50:35;;;;;;;7.70;4.13;;;;;;;11.68;70.36;97366.31;5030747;28;20194;-60
2023/04/01 01:53:10;;;;;;;6.97;4.25;;;;;;;11.11;71.74;97292.00;5030781;28;20273;-60
2023/04/01 01:55:39;;;;;;;6.47;4.72;;;;;;;11.67;71.89;97372.44;5030561;28;20300;-60
2023/04/01 01:58:24;;;;;;;8.70;5.43;;;;;;;11.65;72.08;97370.00;5030684;28;20178;-60
2023/04/01 02:00:56;;;;;;;8.07;5.00;;;;;;;11.44;72.68;97339.97;5042119;28;20267;-60
2023/04/01 02:03:24;;;;;;;7.55;4.97;;;;;;;11.12;73.80;97303.97;5052297;28;20276;-60
2023/04/01 02:05:52;;;;;;;9.85;5.68;;;;;;;10.97;75.20;97315.66;5052834;28;20196;-60
2023/04/01 02:08:30;;;;;;;6.00;5.40;;;;;;;11.18;75.83;97357.81;5052827;28;20169;-60
2023/04/01 02:11:04;;;;;;;8.73;5.18;;;;;;;10.59;79.42;97330.28;5052799;28;20178;-60
2023/04/01 02:13:58;;;;;;;8.60;5.00;;;;;;;10.70;79.97;97345.69;5052749;28;20173;-60
2023/04/01 02:16:29;;;;;;;8.48;5.47;;;;;;;10.51;81.04;97306.84;5052704;28;20208;-60
2023/04/01 02:18:57;;;;;;;6.82;5.65;;;;;;;10.43;81.88;97296.31;5052351;28;20701;-60
2023/04/01 02:21:26;;;;;;;8.13;5.30;;;;;;;10.23;81.76;97271.38;5052477;28;20235;-60
2023/04/01 02:23:54;;;;;;;6.68;5.20;;;;;;;10.17;82.25;97267.53;5052495;28;20728;-60
2023/04/01 02:26:20;;;;;;;6.40;4.80;;;;;;;10.18;81.76;97243.34;5052502;28;20182;-60
2023/04/01 02:28:47;;;;;;;4.68;4.20;;;;;;;10.36;82.35;97279.72;5052500;28;20178;-60
2023/04/01 02:31:14;;;;;;;6.45;4.50;;;;;;;10.28;82.90;97269.22;5052432;28;20174;-60
2023/04/01 02:33:40;;;;;;;4.68;4.32;;;;;;;10.06;83.14;97225.47;5052372;28;20220;-60
2023/04/01 02:36:10;;;;;;;6.65;4.93;;;;;;;10.18;82.71;97227.00;5052354;28;20174;-60
2023/04/01 02:38:36;;;;;;;10.02;5.35;;;;;;;10.42;81.75;97240.41;5052306;28;20215;-60
2023/04/01 02:41:03;;;;;;;5.25;3.65;;;;;;;10.72;80.22;97268.75;5052350;28;20206;-60
2023/04/01 02:43:28;;;;;;;4.32;3.53;;;;;;;10.62;78.61;97237.72;5052204;28;20205;-60
2023/04/01 02:45:54;;;;;;;6.35;3.97;;;;;;;10.79;78.26;97233.69;5052307;28;20558;-60
2023/04/01 02:48:20;;;;;;;4.22;3.83;;;;;;;11.28;78.08;97298.25;5052209;28;20307;-60
2023/04/01 02:50:45;;;;;;;3.78;3.47;;;;;;;11.02;78.14;97261.72;5052211;28;20273;-60
2023/04/01 02:53:11;;;;;;;6.00;3.75;;;;;;;11.24;77.52;97296.88;5052161;28;20243;-60
2023/04/01 02:55:37;;;;;;;7.97;4.43;;;;;;;11.31;78.31;97295.38;5049417;28;20313;-60
2023/04/01 02:58:03;;;;;;;6.40;4.40;;;;;;;10.94;79.33;97232.31;5049792;28;20652;-60
2023/04/01 03:00:29;;;;;;;7.05;3.78;;;;;;;11.39;80.00;97321.44;5049690;28;20189;-60
2023/04/01 03:02:55;;;;;;;6.63;3.75;;;;;;;10.99;80.15;97271.53;5049710;28;20205;-60
2023/04/01 03:05:20;;;;;;;4.47;4.07;;;;;;;10.83;79.89;97258.31;5049674;28;20219;-60
2023/04/01 03:07:46;;;;;;;4.05;3.58;;;;;;;11.35;79.09;97341.59;5049521;28;20186;-60
2023/04/01 03:10:12;;;;;;;5.90;3.75;;;;;;;11.19;78.94;97304.22;5049572;28;20213;-60
2023/04/01 03:12:37;;;;;;;5.97;3.80;;;;;;;10.93;79.62;97288.44;5049762;28;20582;-60
2023/04/01 03:15:03;;;;;;;4.82;4.38;;;;;;;10.24;81.59;97231.63;5053699;28;20220;-60
2023/04/01 03:17:29;;;;;;;5.70;3.30;;;;;;;10.16;82.27;97223.75;5053650;28;20190;-60
2023/04/01 03:19:54;;;;;;;5.05;3.72;;;;;;;10.13;82.48;97227.41;5053618;28;20181;-60
2023/04/01 03:22:20;;;;;;;6.60;3.65;;;;;;;10.66;82.12;97310.69;5053397;28;20217;-60
2023/04/01 03:24:47;;;;;;;7.25;3.92;;;;;;;10.34;82.34;97263.53;5053529;28;20276;-60
2023/04/01 03:27:13;;;;;;;5.30;3.08;;;;;;;10.22;82.84;97270.53;5068515;28;20724;-60
2023/04/01 03:29:38;;;;;;;6.13;3.33;;;;;;;10.17;84.43;97297.75;5073368;28;20177;-60
2023/04/01 03:32:04;;;;;;;5.50;3.40;;;;;;;9.88;84.47;97251.03;5073395;28;20173;-60
2023/04/01 03:34:31;;;;;;;8.13;3.03;;;;;;;9.84;83.71;97229.03;5073289;28;20188;-60
2023/04/01 03:36:57;;;;;;;3.20;2.90;;;;;;;10.25;83.17;97301.31;5073294;28;20173;-60
2023/04/01 03:39:22;;;;;;;4.75;3.33;;;;;;;10.07;82.96;97247.75;5059770;28;20285;-60
2023/04/01 03:41:48;;;;;;;8.07;3.33;;;;;;;10.16;82.26;97254.75;5055533;28;20201;-60
2023/04/01 03:44:13;;;;;;;4.45;3.08;;;;;;;9.97;82.29;97229.63;5055542;28;20537;-60
2023/04/01 03:46:39;;;;;;;5.20;3.13;;;;;;;10.27;83.08;97293.44;5055185;28;20177;-60
2023/04/01 03:49:11;;;;;;;3.72;2.90;;;;;;;9.61;83.66;97224.13;5055465;28;20178;-60
2023/04/01 03:51:42;;;;;;;5.13;3.63;;;;;;;9.80;84.63;97268.16;5055427;28;20232;-60
2023/04/01 03:54:09;;;;;;;3.35;3.15;;;;;;;9.36;85.59;97206.47;5055319;28;20177;-60
2023/04/01 03:56:35;;;;;;;8.95;4.30;;;;;;;9.67;85.96;97251.22;5054966;28;20193;-60
2023/04/01 03:59:05;;;;;;;6.93;4.80;;;;;;;9.42;85.96;97194.81;5055288;28;20181;-60
2023/04/01 04:01:31;;;;;;;5.13;3.53;;;;;;;9.73;85.82;97244.59;5055106;28;20207;-60
2023/04/01 04:03:57;;;;;;;7.53;3.65;;;;;;;9.45;85.74;97189.41;5055421;28;20266;-60
2023/04/01 04:06:24;;;;;;;4.43;3.65;;;;;;;9.81;84.91;97238.78;5055107;28;20170;-60
2023/04/01 04:08:49;;;;;;;4.40;3.40;;;;;;;10.08;85.11;97278.66;5054998;28;20185;-60
2023/04/01 04:11:15;;;;;;;8.40;3.85;;;;;;;10.03;84.34;97243.75;5054748;28;20550;-60
2023/04/01 04:13:41;;;;;;;5.20;3.95;;;;;;;9.99;84.24;97216.56;5055007;28;20181;-60
2023/04/01 04:16:09;;;;;;;6.22;5.07;;;;;;;9.75;85.45;97177.31;5054960;28;20185;-60
2023/04/01 04:18:35;;;;;;;8.95;5.18;;;;;;;9.69;86.74;97178.63;5054797;28;20185;-60
2023/04/01 04:21:01;;;;;;;6.85;5.85;;;;;;;10.20;87.04;97262.09;5054877;28;20181;-60
2023/04/01 04:23:29;;;;;;;8.07;4.97;;;;;;;9.81;86.84;97187.94;5054715;28;20201;-60
2023/04/01 04:26:04;;;;;;;8.02;4.95;;;;;;;10.15;86.51;97227.28;5054044;28;20261;-60
2023/04/01 04:28:30;;;;;;;6.00;4.22;;;;;;;10.19;84.99;97234.63;5054727;28;20172;-60
2023/04/01 04:30:55;;;;;;;6.10;3.80;;;;;;;10.53;84.06;97268.72;5054665;28;20178;-60
2023/04/01 04:33:22;;;;;;;6.88;3.80;;;;;;;10.11;84.04;97187.13;5054609;28;20559;-60
2023/04/01 04:35:48;;;;;;;5.32;4.03;;;;;;;10.52;82.09;97236.88;5032179;28;20183;-60
2023/04/01 04:38:13;;;;;;;4.88;4.15;;;;;;;10.71;81.58;97262.78;5032289;28;20653;-60
2023/04/01 04:40:40;;;;;;;5.25;3.40;;;;;;;10.62;80.46;97221.41;5032473;28;20213;-60
2023/04/01 04:43:05;;;;;;;6.78;3.30;;;;;;;10.85;80.67;97261.59;5032086;28;20229;-60
2023/04/01 04:45:31;;;;;;;3.97;2.90;;;;;;;10.72;80.54;97228.22;5032125;28;20249;-60
2023/04/01 04:47:56;;;;;;;6.10;3.10;;;;;;;10.75;79.70;97227.91;5032051;28;20182;-60
2023/04/01 04:50:23;;;;;;;6.25;2.90;;;;;;;11.08;79.70;97278.50;5031992;28;20186;-60
2023/04/01 04:52:49;;;;;;;4.53;2.72;;;;;;;10.99;79.21;97261.19;5031911;28;20187;-60
2023/04/01 04:55:15;;;;;;;5.90;3.78;;;;;;;11.28;78.08;97270.59;5031693;28;20555;-60
2023/04/01 04:57:40;;;;;;;4.30;3.78;;;;;;;11.18;77.68;97240.47;5031930;28;20306;-60
2023/04/01 05:00:07;;;;;;;4.85;3.25;;;;;;;10.93;77.53;97200.44;5031865;28;20189;-60
2023/04/01 05:02:33;;;;;;;7.38;2.75;;;;;;;11.10;75.36;97222.22;5031742;28;20221;-60
2023/04/01 05:04:58;;;;;;;2.60;2.20;;;;;;;11.05;74.10;97199.34;5031739;28;20179;-60
2023/04/01 05:07:23;;;;;;;5.47;2.30;;;;;;;11.24;72.30;97203.69;5048081;28;20192;-60
2023/04/01 05:09:49;;;;;;;5.20;2.33;;;;;;;11.81;71.61;97283.91;5053962;28;20173;-61
2023/04/01 05:12:17;;;;;;;2.30;2.00;;;;;;;11.89;71.06;97287.44;5053681;28;20235;-61
2023/04/01 05:14:42;;;;;;;4.22;2.10;;;;;;;11.83;71.32;97274.22;5053638;28;20174;-61
2023/04/01 05:17:10;;;;;;;7.03;3.90;;;;;;;11.44;72.56;97205.28;5053311;28;20181;-61
2023/04/01 05:19:36;;;;;;;7.55;4.25;;;;;;;11.64;73.62;97243.16;5053448;28;20644;-61
2023/04/01 05:22:01;;;;;;;9.32;5.18;;;;;;;11.33;74.73;97197.69;5050789;28;20223;-61
2023/04/01 05:24:26;;;;;;;7.75;5.70;;;;;;;11.42;75.02;97187.28;5050717;28;20667;-61
2023/04/01 05:26:52;;;;;;;11.02;6.47;;;;;;;12.08;74.94;97268.44;5050869;28;20240;-61
2023/04/01 05:29:17;;;;;;;10.43;5.95;;;;;;;12.15;74.11;97272.09;5050877;28;20181;-61
2023/04/01 05:31:43;;;;;;;7.47;5.63;;;;;;;11.69;73.17;97183.97;5051081;28;20221;-61
2023/04/01 05:34:08;;;;;;;6.78;5.68;;;;;;;12.22;73.19;97261.00;5050902;28;20228;-61
2023/04/01 05:36:34;;;;;;;13.48;7.28;;;;;;;12.36;72.71;97264.91;5029724;28;20197;-61
2023/04/01 05:38:59;;;;;;;7.68;6.53;;;;;;;12.58;72.60;97272.28;5030940;28;20224;-61
2023/04/01 05:41:25;;;;;;;16.92;7.68;;;;;;;12.06;72.36;97182.19;5030907;28;20591;-61
2023/04/01 05:43:50;;;;;;;12.73;8.43;;;;;;;12.54;72.01;97251.00;5030917;28;20210;-61
2023/04/01 05:46:15;;;;;;;9.77;7.97;;;;;;;12.27;72.35;97204.34;5030689;28;20218;-61
2023/04/01 05:48:41;;;;;;;13.32;7.90;;;;;;;12.64;71.84;97258.72;5030696;28;20193;-60
2023/04/01 05:51:06;;;;;;;18.60;7.85;;;;;;;12.62;71.84;97250.28;5030768;28;20187;-60
2023/04/01 05:53:32;;;;;;;14.20;8.02;;;;;;;12.16;71.96;97165.63;5045100;28;20708;-60
2023/04/01 05:56:02;;;;;;;17.52;7.38;;;;;;;12.44;71.76;97226.09;5050418;28;20214;-60
2023/04/01 05:58:36;;;;;;;14.43;8.77;;;;;;;12.30;74.32;97206.63;5069015;28;21100;-61
2023/04/01 06:01:07;;;;;;;14.60;8.55;;;;;;;12.25;75.35;97193.28;5069286;28;20189;-61
2023/04/01 06:03:33;;;;;;;13.85;9.52;;;;;;;12.43;75.74;97220.06;5069170;28;20215;-61
2023/04/01 06:05:58;;;;;;;16.35;9.15;;;;;;;12.20;76.66;97176.53;5069132;28;20169;-60
2023/04/01 06:08:24;;;;;;;18.95;9.88;;;;;;;12.11;77.24;97167.00;5069049;28;20239;-60
2023/04/01 06:11:27;;;;;;;17.60;10.27;;;;;;;12.47;76.96;97205.03;5068791;28;20215;-60
2023/04/01 06:14:14;;;;;;;17.58;10.38;;;;;;;12.44;76.91;97198.34;5068978;28;20173;-60
2023/04/01 06:17:18;;;;;;;32.92;12.32;;;;;;;11.98;77.11;97122.47;5068896;28;20293;-60
2023/04/01 06:19:44;;;;;;;26.83;14.20;;;;;;;12.57;77.10;97198.84;5068954;28;20177;-60
2023/04/01 06:22:33;;;;;;;28.92;19.40;;;;;;;12.76;77.80;97198.69;5066160;28;20192;-60
2023/04/01 06:25:31;;;;;;;28.20;18.05;;;;;;;12.88;79.73;97191.47;5066453;28;20578;-60
2023/04/01 06:28:05;;;;;;;32.63;18.10;;;;;;;12.81;83.37;97180.06;5006792;28;20249;-60
2023/04/01 06:30:44;;;;;;;30.30;14.45;;;;;;;12.27;84.43;97104.97;5006709;28;20250;-60
2023/04/01 06:33:29;;;;;;;20.77;10.68;;;;;;;12.63;85.12;97177.47;5025922;28;20182;-60
2023/04/01 06:36:00;;;;;;;25.73;13.52;;;;;;;12.52;86.39;97169.09;5026412;28;20187;-60
2023/04/01 06:38:56;;;;;;;18.45;10.40;;;;;;;12.26;86.57;97124.88;5026046;28;20737;-60
2023/04/01 06:41:56;;;;;;;25.40;13.88;;;;;;;12.52;85.98;97166.50;5026211;28;20191;-60
2023/04/01 06:44:50;;;;;;;24.67;11.40;;;;;;;12.45;86.25;97168.88;5006406;28;20175;-60
2023/04/01 06:47:19;;;;;;;13.65;8.63;;;;;;;12.54;85.62;97159.41;4961984;28;20835;-60
2023/04/01 06:50:34;;;;;;;11.65;7.18;;;;;;;12.68;84.87;97145.91;4967405;28;20243;-60
2023/04/01 06:53:29;;;;;;;14.32;7.90;;;;;;;12.33;82.58;97075.84;4909803;29;20250;-61
2023/04/01 06:56:07;;;;;;;16.63;7.47;;;;;;;12.47;83.36;97132.38;4904214;29;20188;-60
2023/04/01 06:58:51;;;;;;;12.48;7.35;;;;;;;12.65;83.18;97148.81;4902948;29;20235;-60
2023/04/01 07:01:45;;;;;;;7.18;4.95;;;;;;;12.91;81.16;97191.19;4919899;29;20187;-60
2023/04/01 07:04:32;;;;;;;10.38;5.88;;;;;;;13.03;79.64;97190.03;4914817;29;20277;-60
2023/04/01 07:07:01;;;;;;;10.63;6.60;;;;;;;13.03;79.41;97175.28;4944299;29;20280;-60
2023/04/01 07:09:40;;;;;;;14.23;9.05;;;;;;;12.75;77.67;97105.41;4956341;28;20284;-60
2023/04/01 07:12:19;;;;;;;8.85;7.00;;;;;;;13.29;78.26;97185.72;4953760;29;20660;-61
2023/04/01 07:14:48;;;;;;;10.18;7.35;;;;;;;12.88;77.98;97103.22;4954021;29;20193;-61
2023/04/01 07:17:19;;;;;;;9.10;6.50;;;;;;;13.14;78.10;97135.28;4953973;29;20208;-61
2023/04/01 07:20:03;;;;;;;9.23;6.70;;;;;;;13.53;77.79;97178.09;4973288;28;20192;-61
2023/04/01 07:22:38;;;;;;;8.35;5.97;;;;;;;13.62;77.38;97187.53;4973336;28;20663;-61
2023/04/01 07:25:33;;;;;;;12.90;5.43;;;;;;;13.66;77.36;97173.28;4973314;28;20189;-61
2023/04/01 07:28:05;;;;;;;9.45;5.95;;;;;;;13.29;77.63;97105.19;4917216;29;20189;-61
2023/04/01 07:30:53;;;;;;;7.45;5.10;;;;;;;12.59;79.77;97010.06;4953541;29;20193;-61
2023/04/01 07:33:28;;;;;;;7.40;5.82;;;;;;;13.09;80.70;97108.94;4953709;29;20293;-61
2023/04/01 07:36:03;;;;;;;10.70;5.15;;;;;;;13.26;81.64;97154.84;4953419;29;20192;-61
2023/04/01 07:38:49;;;;;;;14.82;6.00;;;;;;;13.19;82.02;97152.00;4953360;29;20220;-61
2023/04/01 07:41:41;;;;;;;19.10;6.75;;;;;;;13.11;82.47;97140.75;4953409;29;20284;-61
2023/04/01 07:44:06;;;;;;;10.85;6.07;;;;;;;13.26;82.20;97141.84;4953371;29;20208;-61
2023/04/01 07:46:35;;;;;;;10.40;5.50;;;;;;;13.25;81.61;97143.63;4953144;29;20680;-61
2023/04/01 07:49:14;;;;;;;9.82;6.38;;;;;;;12.81;82.04;97045.09;4953161;29;20223;-61
2023/04/01 07:52:16;;;;;;;9.23;6.43;;;;;;;13.07;81.27;97051.16;4953148;29;20252;-61
2023/04/01 07:54:44;;;;;;;9.13;6.47;;;;;;;13.68;79.99;97132.34;4951616;29;20582;-60
2023/04/01 07:57:30;;;;;;;11.73;6.72;;;;;;;13.88;78.95;97144.16;4952870;29;20285;-60
2023/04/01 08:00:14;;;;;;;10.65;5.70;;;;;;;14.04;77.58;97131.19;4989919;28;20192;-60
2023/04/01 08:03:15;;;;;;;7.32;6.25;;;;;;;14.13;77.09;97143.28;4990332;28;20175;-60
2023/04/01 08:05:53;;;;;;;11.32;6.03;;;;;;;13.93;75.24;97092.50;5015442;28;20198;-60
2023/04/01 08:08:32;;;;;;;12.10;6.80;;;;;;;14.10;75.64;97138.38;5030924;28;20260;-60
2023/04/01 08:11:13;;;;;;;8.43;6.10;;;;;;;14.19;76.03;97130.50;5030843;28;20679;-60
2023/04/01 08:13:48;;;;;;;12.25;6.93;;;;;;;14.10;77.83;97130.56;5031116;28;20178;-61
2023/04/01 08:16:27;;;;;;;13.50;7.60;;;;;;;13.34;77.63;96983.44;5030873;28;20194;-61
2023/04/01 08:19:04;;;;;;;10.73;6.63;;;;;;;14.37;77.25;97122.56;5031065;28;20178;-61
2023/04/01 08:21:42;;;;;;;13.05;6.43;;;;;;;14.45;76.43;97119.94;5029957;28;20186;-61
2023/04/01 08:24:24;;;;;;;7.43;5.63;;;;;;;14.44;76.16;97107.91;5030878;28;20221;-61
2023/04/01 08:26:56;;;;;;;8.20;5.07;;;;;;;13.93;76.22;97030.88;5030573;28;20661;-61
2023/04/01 08:29:39;;;;;;;10.90;5.22;;;;;;;14.16;76.08;97047.53;5030529;28;20213;-60
2023/04/01 08:32:12;;;;;;;6.80;5.00;;;;;;;14.02;76.32;97016.13;5030530;28;20262;-60
2023/04/01 08:34:40;;;;;;;6.32;4.78;;;;;;;14.60;75.29;97105.34;5030402;28;20209;-61
2023/04/01 08:37:19;;;;;;;7.28;4.97;;;;;;;14.15;75.44;97032.06;5030212;28;20296;-61
2023/04/01 08:39:50;;;;;;;7.43;6.03;;;;;;;14.39;76.27;97081.56;4990762;28;20303;-61
2023/04/01 08:42:37;;;;;;;8.30;5.50;;;;;;;14.60;75.08;97085.34;5008738;28;20178;-61
2023/04/01 08:45:27;;;;;;;9.30;5.40;;;;;;;14.53;73.01;97041.91;5010495;28;20195;-61
2023/04/01 08:48:08;;;;;;;8.52;5.07;;;;;;;14.90;72.50;97091.69;5010303;28;20186;-61
2023/04/01 08:51:13;;;;;;;7.22;5.82;;;;;;;15.00;71.45;97087.13;5010414;28;20194;-61
2023/04/01 08:53:50;;;;;;;10.27;6.18;;;;;;;15.08;70.76;97076.69;5010282;28;20179;-61
2023/04/01 08:56:58;;;;;;;12.05;6.25;;;;;;;15.07;70.51;97067.25;5010069;28;20673;-61
2023/04/01 08:59:24;;;;;;;11.75;6.85;;;;;;;15.11;70.37;97071.94;4990255;28;20668;-61
2023/04/01 09:01:58;;;;;;;7.78;6.03;;;;;;;15.15;70.63;97062.00;4990434;28;20192;-61
2023/04/01 09:04:37;;;;;;;8.63;6.07;;;;;;;14.96;69.91;97028.50;4990458;28;20577;-61
2023/04/01 09:07:12;;;;;;;7.82;5.28;;;;;;;14.99;69.91;97056.84;4990566;28;20570;-61
2023/04/01 09:10:00;;;;;;;11.77;4.85;;;;;;;14.90;69.13;97042.19;4991780;28;20188;-61
2023/04/01 09:12:50;;;;;;;7.15;5.00;;;;;;;14.95;69.61;97038.13;4951563;29;20664;-61
2023/04/01 09:15:48;;;;;;;26.30;6.55;;;;;;;14.86;69.75;97010.47;4950844;29;20193;-61
2023/04/01 09:18:39;;;;;;;8.27;5.38;;;;;;;14.92;71.62;97016.81;4950337;29;20310;-61
2023/04/01 09:21:32;;;;;;;11.43;6.25;;;;;;;14.81;72.97;97004.94;4950328;29;20267;-61
2023/04/01 09:24:00;;;;;;;11.73;7.13;;;;;;;14.79;72.59;97011.28;4950257;29;20284;-61
2023/04/01 09:26:44;;;;;;;13.25;6.88;;;;;;;14.86;73.02;97004.44;4950316;29;20637;-61
2023/04/01 09:29:38;;;;;;;9.90;5.72;;;;;;;14.69;72.24;96995.84;4949816;29;20664;-61
2023/04/01 09:32:23;;;;;;;12.25;5.82;;;;;;;14.72;72.34;96992.09;4893915;29;20636;-61
2023/04/01 09:34:51;;;;;;;16.33;7.93;;;;;;;14.78;72.31;96981.03;4903490;29;20198;-61
2023/04/01 09:37:52;;;;;;;13.43;7.00;;;;;;;14.83;72.20;96970.94;4913043;29;20229;-61
2023/04/01 09:40:21;;;;;;;9.60;5.75;;;;;;;14.91;72.04;96965.69;4913313;29;20182;-62
2023/04/01 09:43:31;;;;;;;9.38;6.00;;;;;;;14.87;71.83;96943.59;4913165;29;20286;-62
2023/04/01 09:46:09;;;;;;;9.93;6.38;;;;;;;15.25;71.85;96968.84;4894226;29;20708;-61
2023/04/01 09:48:49;;;;;;;10.93;7.07;;;;;;;15.38;71.08;96971.75;4899168;29;20697;-61
2023/04/01 09:51:24;;;;;;;13.10;6.82;;;;;;;15.47;70.71;96957.72;4932147;29;20182;-61
2023/04/01 09:54:08;;;;;;;8.75;6.32;;;;;;;15.53;70.88;96946.59;4932285;29;20664;-61
2023/04/01 09:57:10;;;;;;;12.70;8.65;;;;;;;15.55;71.05;96955.88;4931828;29;20261;-61
2023/04/01 10:00:06;;;;;;;8.80;7.05;;;;;;;15.51;71.10;96953.78;4932238;29;20185;-61
2023/04/01 10:02:55;;;;;;;16.70;7.82;;;;;;;15.60;70.63;96952.75;4931799;29;20606;-61
2023/04/01 10:05:45;;;;;;;19.17;11.23;;;;;;;15.81;69.40;96943.31;4893325;29;20195;-61
2023/04/01 10:08:51;;;;;;;16.25;8.60;;;;;;;15.93;69.89;96930.72;4902020;29;20197;-61
2023/04/01 10:11:53;;;;;;;18.73;8.50;;;;;;;16.09;68.63;96897.47;4951324;29;20679;-61
2023/04/01 10:14:37;;;;;;;12.77;5.95;;;;;;;16.53;67.06;96931.53;4949673;29;20219;-61
2023/04/01 10:17:17;;;;;;;30.58;17.52;;;;;;;16.75;66.32;96934.13;4951292;29;20217;-61
2023/04/01 10:20:01;;;;;;;25.98;14.23;;;;;;;16.91;65.26;96933.13;4951333;29;20189;-61
2023/04/01 10:23:00;;;;;;;8.70;5.38;;;;;;;17.06;64.32;96916.44;4967725;28;20215;-61
2023/04/01 10:25:58;;;;;;;13.23;6.82;;;;;;;16.68;63.69;96836.53;4970597;28;20563;-61
2023/04/01 10:28:46;;;;;;;10.82;5.90;;;;;;;17.05;63.77;96914.84;4970248;28;20194;-61
2023/04/01 10:31:51;;;;;;;15.20;9.55;;;;;;;16.85;63.99;96898.06;4969084;28;20180;-59
2023/04/01 10:34:39;;;;;;;19.92;11.00;;;;;;;16.94;64.58;96888.31;4970518;28;20168;-61
2023/04/01 10:37:23;;;;;;;20.52;11.77;;;;;;;17.14;63.83;96899.88;4970386;28;20220;-61
2023/04/01 10:40:19;;;;;;;52.60;22.45;;;;;;;17.32;62.44;96867.09;4970472;28;20180;-61
2023/04/01 10:42:50;;;;;;;13.20;6.97;;;;;;;17.57;61.80;96880.69;5009739;28;20201;-61
2023/04/01 10:45:52;;;;;;;10.95;5.10;;;;;;;17.75;59.58;96888.91;5034854;28;20177;-61
2023/04/01 10:49:09;;;;;;;9.05;5.07;;;;;;;17.86;59.60;96865.69;5035195;28;20257;-59
2023/04/01 10:52:11;;;;;;;42.53;20.10;;;;;;;17.30;60.57;96800.28;5012749;28;20190;-61
2023/04/01 10:54:48;;;;;;;12.02;6.57;;;;;;;17.19;59.87;96785.13;5012895;28;20186;-59
2023/04/01 10:57:40;;;;;;;7.93;4.65;;;;;;;17.52;59.12;96838.56;5012588;28;20284;-60
2023/04/01 11:00:14;;;;;;;6.60;4.70;;;;;;;17.45;58.67;96835.09;4973636;28;20680;-60
2023/04/01 11:02:54;;;;;;;7.80;5.03;;;;;;;17.30;58.84;96815.97;4973684;28;20188;-60
2023/04/01 11:05:26;;;;;;;6.45;4.47;;;;;;;17.37;58.70;96824.72;4973607;28;20187;-60
2023/04/01 11:08:10;;;;;;;22.85;10.85;;;;;;;17.33;58.70;96818.25;4973624;28;20195;-60
2023/04/01 11:10:59;;;;;;;8.60;4.78;;;;;;;17.44;57.74;96802.09;4973515;28;20180;-60
2023/04/01 11:14:06;;;;;;;5.85;4.13;;;;;;;17.43;57.89;96795.25;4973516;28;20702;-61
2023/04/01 11:16:43;;;;;;;5.63;4.30;;;;;;;17.20;58.86;96787.53;4954192;29;20198;-60
2023/04/01 11:19:18;;;;;;;8.13;4.40;;;;;;;17.31;58.97;96771.38;4954043;29;20204;-60
2023/04/01 11:21:58;;;;;;;6.78;4.57;;;;;;;17.12;58.54;96711.03;4954004;29;20282;-60
2023/04/01 11:24:54;;;;;;;12.10;5.00;;;;;;;17.64;59.08;96753.38;4952567;29;20196;-61
2023/04/01 11:27:25;;;;;;;6.25;4.63;;;;;;;17.75;58.77;96779.03;4964524;28;20258;-60
2023/04/01 11:30:12;;;;;;;6.13;4.53;;;;;;;17.74;59.45;96751.25;4973287;28;20188;-60
2023/04/01 11:32:37;;;;;;;11.30;4.88;;;;;;;17.75;59.20;96750.25;4973199;28;20195;-60
2023/04/01 11:35:30;;;;;;;9.82;5.45;;;;;;;17.72;60.42;96748.81;4973168;28;20186;-61
2023/04/01 11:38:26;;;;;;;5.72;4.70;;;;;;;17.69;61.21;96740.56;4990815;28;20814;-61
2023/04/01 11:41:29;;;;;;;13.50;6.93;;;;;;;17.58;61.62;96735.84;4992487;28;20179;-61
2023/04/01 11:44:13;;;;;;;9.73;5.40;;;;;;;17.60;61.89;96723.41;4992402;28;20674;-61
2023/04/01 11:46:50;;;;;;;8.35;5.55;;;;;;;17.85;61.79;96720.13;4992362;28;20187;-61
2023/04/01 11:49:25;;;;;;;7.97;4.43;;;;;;;17.96;61.04;96716.22;4992356;28;20222;-60
2023/04/01 11:52:17;;;;;;;7.97;4.32;;;;;;;18.02;59.80;96713.63;5010180;28;20192;-61
2023/04/01 11:55:06;;;;;;;6.93;4.35;;;;;;;18.07;59.29;96721.69;5033886;28;20185;-61
2023/04/01 11:58:08;;;;;;;6.22;4.25;;;;;;;17.94;59.14;96726.03;5031125;28;20229;-61
2023/04/01 12:01:11;;;;;;;8.90;4.68;;;;;;;17.90;59.19;96730.84;5031463;28;20695;-60
2023/04/01 12:03:39;;;;;;;8.50;4.88;;;;;;;17.73;59.54;96718.25;5031402;28;20181;-60
2023/04/01 12:06:32;;;;;;;8.48;4.50;;;;;;;17.56;60.24;96711.69;5031307;28;20180;-60
2023/04/01 12:09:04;;;;;;;9.05;4.70;;;;;;;17.48;60.96;96707.41;5031359;28;20659;-60
2023/04/01 12:11:41;;;;;;;7.45;3.97;;;;;;;17.47;60.62;96707.56;5031279;28;20185;-60
2023/04/01 12:14:43;;;;;;;6.55;3.90;;;;;;;17.45;60.98;96702.56;5031266;28;20186;-61